createdAt,value
2019-02-19T00:04:10.178Z,6.87
2019-02-19T00:09:15.870Z,6.73
2019-02-19T00:14:21.729Z,6.70
2019-02-19T00:19:27.398Z,6.60
2019-02-19T00:24:32.487Z,7.10
2019-02-19T00:29:38.929Z,5.83
2019-02-19T00:34:48.632Z,7.00
2019-02-19T00:39:55.483Z,6.17
2019-02-19T00:45:01.335Z,6.30
2019-02-19T00:50:09.607Z,6.50
2019-02-19T00:55:15.985Z,7.10
2019-02-19T01:00:22.572Z,6.93
2019-02-19T01:05:27.743Z,7.10
2019-02-19T01:10:39.774Z,4.73
2019-02-19T01:15:46.745Z,6.53
2019-02-19T01:20:51.786Z,6.67
2019-02-19T01:25:56.848Z,6.57
2019-02-19T01:31:02.888Z,4.80
2019-02-19T01:36:08.184Z,6.40
2019-02-19T01:41:13.561Z,4.90
2019-02-19T01:46:18.367Z,5.83
2019-02-19T01:51:22.948Z,6.57
2019-02-19T01:56:27.944Z,5.20
2019-02-19T02:01:33.761Z,6.83
2019-02-19T02:06:46.888Z,8.40
2019-02-19T02:11:53.010Z,6.27
2019-02-19T02:17:01.077Z,8.10
2019-02-19T02:22:09.251Z,8.13
2019-02-19T02:27:15.197Z,6.33
2019-02-19T02:32:23.767Z,8.73
2019-02-19T02:37:33.696Z,9.83
2019-02-19T02:42:39.351Z,7.50
2019-02-19T02:47:48.581Z,8.97
2019-02-19T02:52:53.427Z,7.33
2019-02-19T02:57:58.916Z,9.17
2019-02-19T03:03:04.242Z,9.60
2019-02-19T03:08:09.358Z,11.33
2019-02-19T03:13:14.623Z,8.90
2019-02-19T03:18:20.658Z,9.50
2019-02-19T03:23:26.659Z,10.23
2019-02-19T03:28:32.108Z,9.63
2019-02-19T03:33:37.035Z,10.20
2019-02-19T03:38:41.891Z,13.03
2019-02-19T03:43:47.293Z,11.63
2019-02-19T03:48:52.553Z,10.13
2019-02-19T03:53:58.560Z,9.33
2019-02-19T03:59:03.561Z,11.23
2019-02-19T04:04:08.524Z,14.40
2019-02-19T04:09:13.860Z,14.53
2019-02-19T04:14:19.100Z,9.20
2019-02-19T04:19:24.120Z,10.33
2019-02-19T04:24:29.090Z,13.67
2019-02-19T04:29:33.426Z,13.63
2019-02-19T04:34:38.140Z,8.70
2019-02-19T04:39:43.324Z,10.67
2019-02-19T04:44:48.018Z,10.77
2019-02-19T04:49:55.077Z,14.23
2019-02-19T04:54:59.949Z,13.47
2019-02-19T05:00:05.675Z,15.13
2019-02-19T05:05:10.942Z,9.00
2019-02-19T05:10:15.857Z,11.57
2019-02-19T05:15:20.079Z,10.97
2019-02-19T05:20:24.884Z,13.87
2019-02-19T05:25:29.748Z,9.80
2019-02-19T05:30:35.039Z,11.67
2019-02-19T05:35:40.002Z,15.90
2019-02-19T05:45:52.580Z,16.07
2019-02-19T05:51:00.225Z,13.57
2019-02-19T05:56:04.990Z,10.20
2019-02-19T06:01:10.002Z,16.77
2019-02-19T06:06:14.214Z,16.10
2019-02-19T06:11:18.534Z,17.70
2019-02-19T06:16:23.344Z,18.67
2019-02-19T06:21:28.380Z,15.80
2019-02-19T06:26:33.071Z,11.63
2019-02-19T06:31:38.604Z,17.93
2019-02-19T06:36:43.092Z,16.87
2019-02-19T06:41:47.820Z,15.90
2019-02-19T06:46:52.965Z,15.60
2019-02-19T06:52:00.436Z,14.87
2019-02-19T06:57:07.526Z,15.40
2019-02-19T07:02:26.722Z,13.77
2019-02-19T07:07:33.974Z,13.83
2019-02-19T07:12:39.253Z,14.83
2019-02-19T07:17:43.432Z,12.83
2019-02-19T07:22:47.585Z,11.03
2019-02-19T07:27:52.945Z,10.50
2019-02-19T07:32:57.993Z,9.33
2019-02-19T07:38:02.594Z,11.87
2019-02-19T07:43:08.584Z,10.43
2019-02-19T07:48:14.122Z,9.47
2019-02-19T07:53:18.381Z,9.30
2019-02-19T07:58:25.686Z,8.70
2019-02-19T08:03:30.570Z,8.53
2019-02-19T08:08:35.936Z,9.70
2019-02-19T08:13:40.216Z,11.27
2019-02-19T08:18:45.169Z,11.40
2019-02-19T08:23:50.523Z,11.67
2019-02-19T08:29:07.102Z,10.93
2019-02-19T08:34:11.375Z,12.40
2019-02-19T08:39:17.768Z,12.10
2019-02-19T08:44:26.286Z,10.97
2019-02-19T08:49:31.221Z,10.70
2019-02-19T08:54:35.913Z,9.17
2019-02-19T08:59:40.257Z,10.20
2019-02-19T09:04:48.012Z,9.90
2019-02-19T09:10:02.179Z,9.47
2019-02-19T09:15:13.674Z,9.13
2019-02-19T09:20:23.215Z,10.63
2019-02-19T09:25:28.695Z,8.70
2019-02-19T09:30:36.447Z,7.90
2019-02-19T09:35:41.801Z,7.93
2019-02-19T09:40:50.812Z,6.83
2019-02-19T09:45:59.070Z,6.63
2019-02-19T09:51:05.499Z,7.77
2019-02-19T10:01:13.788Z,5.73
2019-02-19T10:06:26.196Z,6.13
2019-02-19T10:11:31.830Z,6.03
2019-02-19T10:16:41.694Z,7.63
2019-02-19T10:21:46.847Z,6.30
2019-02-19T10:26:52.163Z,6.40
2019-02-19T10:32:06.029Z,5.67
2019-02-19T10:37:15.847Z,4.80
2019-02-19T10:42:28.869Z,5.17
2019-02-19T10:47:35.965Z,5.20
2019-02-19T10:52:43.229Z,6.53
2019-02-19T10:58:01.653Z,4.37
2019-02-19T11:03:09.990Z,5.07
2019-02-19T11:08:15.349Z,5.30
2019-02-19T11:13:23.636Z,5.17
2019-02-19T11:18:29.941Z,4.60
2019-02-19T11:23:40.707Z,6.07
2019-02-19T11:28:47.818Z,4.87
2019-02-19T11:33:55.250Z,4.90
2019-02-19T11:39:08.161Z,5.07
2019-02-19T11:44:13.245Z,5.60
2019-02-19T11:49:21.451Z,4.17
2019-02-19T11:59:59.679Z,5.20
2019-02-19T12:05:06.879Z,3.43
2019-02-19T12:10:16.056Z,4.13
2019-02-19T12:15:21.391Z,3.90
2019-02-19T12:20:27.602Z,5.13
2019-02-19T12:25:32.603Z,3.40
2019-02-19T12:30:38.092Z,3.90
2019-02-19T12:35:46.356Z,4.50
2019-02-19T12:40:51.616Z,3.93
2019-02-19T12:45:56.974Z,4.20
2019-02-19T12:51:02.196Z,3.50
2019-02-19T12:56:09.540Z,4.10
2019-02-19T13:01:17.397Z,4.67
2019-02-19T13:06:23.325Z,3.87
2019-02-19T13:11:30.310Z,3.40
2019-02-19T13:21:39.946Z,3.83
2019-02-19T13:26:47.067Z,3.17
2019-02-19T13:31:52.419Z,3.10
2019-02-19T13:36:59.799Z,3.00
2019-02-19T13:42:05.649Z,3.30
2019-02-19T13:47:13.929Z,2.50
2019-02-19T13:52:31.968Z,2.90
2019-02-19T13:57:37.682Z,2.87
2019-02-19T14:02:42.530Z,2.90
2019-02-19T14:07:47.795Z,3.03
2019-02-19T14:12:54.816Z,2.90
2019-02-19T14:18:00.341Z,2.83
2019-02-19T14:23:19.275Z,3.80
2019-02-19T14:29:01.757Z,3.37
2019-02-19T14:34:28.421Z,3.07
2019-02-19T14:39:52.682Z,3.53
2019-02-19T14:45:25.864Z,3.40
2019-02-19T14:50:56.540Z,3.60
2019-02-19T14:56:23.560Z,3.30
2019-02-19T15:01:53.589Z,3.63
2019-02-19T15:07:20.272Z,3.53
2019-02-19T21:25:16.405Z,6.67
2019-02-19T21:30:20.677Z,6.10
2019-02-19T21:35:25.724Z,5.60
2019-02-19T21:40:30.283Z,5.53
2019-02-19T21:45:34.369Z,5.47
2019-02-19T21:50:38.650Z,4.40
2019-02-19T21:55:43.507Z,4.97
2019-02-19T22:00:48.352Z,4.50
2019-02-19T22:05:53.323Z,5.23
2019-02-19T22:10:58.088Z,5.37
2019-02-19T22:16:02.376Z,5.90
2019-02-19T22:21:38.493Z,5.90
2019-02-19T22:26:43.476Z,5.67
2019-02-19T22:31:48.422Z,5.23
2019-02-19T22:36:53.192Z,5.73
2019-02-19T22:41:57.622Z,5.27
2019-02-19T22:47:02.200Z,5.17
2019-02-19T22:52:12.582Z,6.23
2019-02-19T22:57:16.133Z,6.30
2019-02-19T23:02:28.907Z,5.33
2019-02-19T23:07:37.346Z,6.40
2019-02-19T23:12:42.213Z,6.23
2019-02-19T23:17:47.005Z,6.27
2019-02-19T23:22:51.972Z,6.00
2019-02-19T23:27:56.812Z,6.37
2019-02-19T23:33:00.957Z,6.17
2019-02-19T23:38:07.384Z,6.37
2019-02-19T23:43:14.888Z,5.90
2019-02-19T23:48:18.939Z,6.27
2019-02-19T23:53:23.112Z,5.70
2019-02-19T23:58:27.489Z,6.70
